createdAt,value
2023-04-09T00:01:19.745Z,0.00
2023-04-09T00:06:19.672Z,0.00
2023-04-09T00:11:19.605Z,0.00
2023-04-09T00:16:19.562Z,0.00
2023-04-09T00:21:19.475Z,0.00
2023-04-09T00:26:19.397Z,0.00
2023-04-09T00:31:20.766Z,0.00
2023-04-09T00:36:19.262Z,0.00
2023-04-09T00:41:19.224Z,0.00
2023-04-09T00:46:19.255Z,0.00
2023-04-09T00:51:19.081Z,0.00
2023-04-09T00:56:19.013Z,0.00
2023-04-09T01:01:18.975Z,0.00
2023-04-09T01:06:18.863Z,0.00
2023-04-09T01:11:18.796Z,0.00
2023-04-09T01:16:18.759Z,0.00
2023-04-09T01:21:18.657Z,0.00
2023-04-09T01:26:18.578Z,0.00
2023-04-09T01:31:18.543Z,0.00
2023-04-09T01:36:18.447Z,0.00
2023-04-09T01:41:18.384Z,0.00
2023-04-09T01:46:18.361Z,0.00
2023-04-09T01:51:18.251Z,0.00
2023-04-09T01:56:18.171Z,0.00
2023-04-09T02:01:18.148Z,0.00
2023-04-09T02:06:18.046Z,0.00
2023-04-09T02:11:17.976Z,0.00
2023-04-09T02:16:18.056Z,0.00
2023-04-09T02:21:17.839Z,0.00
2023-04-09T02:26:17.780Z,0.00
2023-04-09T02:31:17.741Z,0.00
2023-04-09T02:36:17.656Z,0.00
2023-04-09T02:41:17.574Z,0.00
2023-04-09T02:46:17.546Z,0.00
2023-04-09T02:51:17.457Z,0.00
2023-04-09T02:56:17.364Z,0.00
2023-04-09T03:01:17.348Z,0.00
2023-04-09T03:06:17.233Z,0.00
2023-04-09T03:11:17.181Z,0.00
2023-04-09T03:16:17.187Z,0.00
2023-04-09T03:21:17.055Z,0.00
2023-04-09T03:26:16.978Z,0.00
2023-04-09T03:31:16.967Z,0.00
2023-04-09T03:36:16.875Z,0.00
2023-04-09T03:41:16.790Z,0.00
2023-04-09T03:46:16.742Z,0.00
2023-04-09T03:51:16.652Z,0.00
2023-04-09T03:56:16.581Z,0.00
2023-04-09T04:01:16.536Z,0.00
2023-04-09T04:06:16.454Z,0.00
2023-04-09T04:11:16.388Z,0.00
2023-04-09T04:16:16.369Z,0.00
2023-04-09T04:21:16.242Z,5.62
2023-04-09T04:26:16.177Z,11.25
2023-04-09T04:31:16.140Z,22.50
2023-04-09T04:36:16.050Z,33.75
2023-04-09T04:41:15.984Z,50.62
2023-04-09T04:46:15.972Z,67.50
2023-04-09T04:51:15.850Z,90.00
2023-04-09T04:56:15.773Z,112.50
2023-04-09T05:01:15.776Z,157.50
2023-04-09T05:06:15.644Z,253.12
2023-04-09T05:11:15.585Z,343.12
2023-04-09T05:16:15.525Z,326.25
2023-04-09T05:21:15.456Z,360.00
2023-04-09T05:26:15.404Z,382.50
2023-04-09T05:31:15.367Z,438.75
2023-04-09T05:36:15.256Z,511.87
2023-04-09T05:41:15.191Z,590.62
2023-04-09T05:46:15.140Z,663.75
2023-04-09T05:51:15.182Z,731.25
2023-04-09T05:56:14.997Z,787.50
2023-04-09T06:01:14.921Z,860.62
2023-04-09T06:06:14.864Z,945.00
2023-04-09T06:11:14.802Z,1113.75
2023-04-09T06:16:14.792Z,1012.50
2023-04-09T06:21:14.667Z,1068.75
2023-04-09T06:26:14.600Z,1237.50
2023-04-09T06:31:14.620Z,1305.00
2023-04-09T06:36:14.490Z,1456.87
2023-04-09T06:41:14.410Z,2896.87
2023-04-09T06:46:14.343Z,3285.00
2023-04-09T06:51:14.250Z,3172.50
2023-04-09T06:56:14.202Z,4156.87
2023-04-09T07:01:14.121Z,4815.00
2023-04-09T07:06:14.064Z,2345.62
2023-04-09T07:11:13.984Z,3892.50
2023-04-09T07:16:13.959Z,3886.87
2023-04-09T07:21:13.852Z,4145.62
2023-04-09T07:26:13.797Z,3048.75
2023-04-09T07:31:13.764Z,4376.25
2023-04-09T07:36:13.774Z,4252.50
2023-04-09T07:41:13.597Z,3633.75
2023-04-09T07:46:13.536Z,3116.25
2023-04-09T07:51:13.461Z,3757.50
2023-04-09T07:56:13.402Z,4207.50
2023-04-09T08:01:13.333Z,3903.75
2023-04-09T08:06:13.266Z,4421.25
2023-04-09T08:11:13.188Z,4753.12
2023-04-09T08:16:13.167Z,4348.12
2023-04-09T08:21:13.054Z,4398.75
2023-04-09T08:26:13.009Z,3110.62
2023-04-09T08:31:12.920Z,2930.62
2023-04-09T08:36:12.900Z,5056.87
2023-04-09T08:41:14.095Z,4359.37
2023-04-09T08:46:12.844Z,4905.00
2023-04-09T08:51:12.646Z,4792.50
2023-04-09T08:56:12.586Z,4449.37
2023-04-09T09:01:13.623Z,4578.75
2023-04-09T09:06:12.451Z,4213.12
2023-04-09T09:11:12.385Z,4533.75
2023-04-09T09:16:12.366Z,4556.25
2023-04-09T09:21:12.243Z,4888.12
2023-04-09T09:26:12.197Z,4252.50
2023-04-09T09:31:12.182Z,4055.62
2023-04-09T09:36:12.217Z,4083.75
2023-04-09T09:41:11.986Z,4258.12
2023-04-09T09:46:12.008Z,4055.62
2023-04-09T09:51:11.859Z,4050.00
2023-04-09T09:56:11.810Z,4005.00
2023-04-09T10:01:11.743Z,3746.25
2023-04-09T10:06:11.669Z,3825.00
2023-04-09T10:11:11.585Z,3853.12
2023-04-09T10:16:11.614Z,3571.87
2023-04-09T10:21:11.442Z,3543.75
2023-04-09T10:26:11.380Z,3431.25
2023-04-09T10:31:11.354Z,3346.87
2023-04-09T10:36:11.291Z,3391.87
2023-04-09T10:41:11.185Z,3330.00
2023-04-09T10:46:11.141Z,3228.75
2023-04-09T10:51:11.056Z,3155.62
2023-04-09T10:56:10.996Z,2733.75
2023-04-09T11:01:10.919Z,2739.37
2023-04-09T11:06:10.860Z,2986.87
2023-04-09T11:11:10.784Z,3020.62
2023-04-09T11:16:10.777Z,2851.87
2023-04-09T11:21:10.656Z,2075.62
2023-04-09T11:26:10.597Z,1434.37
2023-04-09T11:31:10.640Z,1305.00
2023-04-09T11:36:10.558Z,1456.87
2023-04-09T11:41:10.376Z,1524.37
2023-04-09T11:46:10.333Z,1226.25
2023-04-09T11:51:10.255Z,1057.50
2023-04-09T11:56:10.203Z,990.00
2023-04-09T12:01:10.110Z,945.00
2023-04-09T12:06:10.057Z,888.75
2023-04-09T12:11:09.977Z,596.25
2023-04-09T12:16:09.935Z,573.75
2023-04-09T12:21:09.846Z,562.50
2023-04-09T12:26:09.791Z,540.00
2023-04-09T12:31:09.713Z,489.37
2023-04-09T12:36:09.682Z,466.87
2023-04-09T12:41:09.596Z,461.25
2023-04-09T12:46:09.598Z,450.00
2023-04-09T12:51:09.442Z,438.75
2023-04-09T12:56:09.391Z,433.12
2023-04-09T13:01:09.406Z,433.12
2023-04-09T13:06:09.253Z,433.12
2023-04-09T13:11:09.173Z,421.87
2023-04-09T13:16:09.131Z,421.87
2023-04-09T13:21:09.034Z,416.25
2023-04-09T13:26:08.983Z,405.00
2023-04-09T13:31:08.950Z,393.75
2023-04-09T13:36:08.867Z,393.75
2023-04-09T13:41:08.780Z,393.75
2023-04-09T13:46:08.733Z,388.12
2023-04-09T13:51:08.645Z,376.87
2023-04-09T13:56:08.578Z,371.25
2023-04-09T14:01:08.554Z,365.62
2023-04-09T14:06:08.465Z,360.00
2023-04-09T14:11:08.370Z,354.37
2023-04-09T14:16:08.324Z,354.37
2023-04-09T14:21:10.129Z,348.75
2023-04-09T14:26:08.184Z,348.75
2023-04-09T14:31:08.189Z,343.12
2023-04-09T14:36:08.093Z,337.50
2023-04-09T14:41:07.980Z,331.87
2023-04-09T14:46:07.970Z,326.25
2023-04-09T14:51:07.862Z,320.62
2023-04-09T14:56:07.795Z,320.62
2023-04-09T15:01:07.755Z,315.00
2023-04-09T15:06:07.676Z,309.37
2023-04-09T15:11:07.604Z,303.75
2023-04-09T15:16:07.563Z,298.12
2023-04-09T15:21:07.477Z,292.50
2023-04-09T15:26:07.402Z,286.87
2023-04-09T15:31:07.353Z,286.87
2023-04-09T15:36:07.293Z,281.25
2023-04-09T15:41:07.432Z,275.62
2023-04-09T15:46:07.200Z,264.37
2023-04-09T15:51:07.100Z,258.75
2023-04-09T15:56:07.016Z,253.12
2023-04-09T16:01:07.014Z,247.50
2023-04-09T16:06:06.896Z,236.25
2023-04-09T16:11:06.846Z,230.62
2023-04-09T16:16:06.999Z,225.00
2023-04-09T16:21:06.695Z,219.37
2023-04-09T16:26:06.628Z,213.75
2023-04-09T16:31:06.573Z,196.87
2023-04-09T16:36:06.530Z,185.62
2023-04-09T16:41:06.448Z,174.37
2023-04-09T16:46:06.401Z,163.12
2023-04-09T16:51:06.286Z,151.87
2023-04-09T16:56:06.225Z,140.62
2023-04-09T17:01:06.156Z,129.37
2023-04-09T17:06:06.105Z,118.12
2023-04-09T17:11:06.021Z,106.87
2023-04-09T17:16:06.318Z,95.62
2023-04-09T17:21:05.887Z,78.75
2023-04-09T17:26:05.832Z,67.50
2023-04-09T17:31:05.790Z,56.25
2023-04-09T17:36:05.749Z,50.62
2023-04-09T17:41:07.374Z,39.37
2023-04-09T17:46:05.651Z,28.12
2023-04-09T17:51:05.510Z,16.87
2023-04-09T17:56:05.448Z,11.25
2023-04-09T18:01:05.471Z,5.62
2023-04-09T18:06:05.306Z,0.00
2023-04-09T18:11:12.894Z,0.00
2023-04-09T18:16:05.198Z,0.00
2023-04-09T18:21:05.097Z,0.00
2023-04-09T18:26:05.066Z,0.00
2023-04-09T18:31:04.992Z,0.00
2023-04-09T18:36:04.956Z,0.00
2023-04-09T18:41:04.833Z,0.00
2023-04-09T18:46:04.818Z,0.00
2023-04-09T18:51:04.692Z,0.00
2023-04-09T18:56:04.639Z,0.00
2023-04-09T19:01:04.555Z,0.00
2023-04-09T19:06:04.498Z,0.00
2023-04-09T19:11:04.425Z,0.00
2023-04-09T19:16:04.431Z,0.00
2023-04-09T19:21:04.292Z,0.00
2023-04-09T19:26:04.246Z,0.00
2023-04-09T19:31:04.188Z,0.00
2023-04-09T19:36:04.149Z,0.00
2023-04-09T19:41:04.027Z,0.00
2023-04-09T19:46:03.979Z,0.00
2023-04-09T19:51:03.939Z,0.00
2023-04-09T19:56:03.941Z,0.00
2023-04-09T20:01:03.996Z,0.00
2023-04-09T20:06:03.945Z,0.00
2023-04-09T20:11:03.626Z,0.00
2023-04-09T20:16:03.604Z,0.00
2023-04-09T20:21:03.493Z,0.00
2023-04-09T20:26:03.428Z,0.00
2023-04-09T20:31:03.359Z,0.00
2023-04-09T20:36:03.345Z,0.00
2023-04-09T20:41:03.237Z,0.00
2023-04-09T20:46:03.222Z,0.00
2023-04-09T20:51:03.098Z,0.00
2023-04-09T20:56:03.055Z,0.00
2023-04-09T21:01:02.962Z,0.00
2023-04-09T21:06:02.936Z,0.00
2023-04-09T21:11:02.819Z,0.00
2023-04-09T21:16:02.775Z,0.00
2023-04-09T21:21:02.694Z,0.00
2023-04-09T21:26:02.645Z,0.00
2023-04-09T21:31:02.624Z,0.00
2023-04-09T21:36:02.532Z,0.00
2023-04-09T21:41:02.451Z,0.00
2023-04-09T21:46:02.435Z,0.00
2023-04-09T21:51:02.304Z,0.00
2023-04-09T21:56:04.672Z,0.00
2023-04-09T22:01:02.255Z,0.00
2023-04-09T22:06:02.147Z,0.00
2023-04-09T22:11:02.036Z,0.00
2023-04-09T22:16:02.046Z,0.00
2023-04-09T22:21:01.909Z,0.00
2023-04-09T22:26:01.870Z,0.00
2023-04-09T22:31:01.818Z,0.00
2023-04-09T22:36:01.775Z,0.00
2023-04-09T22:41:01.631Z,0.00
2023-04-09T22:46:01.647Z,0.00
2023-04-09T22:51:01.500Z,0.00
2023-04-09T22:56:01.461Z,0.00
2023-04-09T23:01:01.365Z,0.00
2023-04-09T23:06:01.314Z,0.00
2023-04-09T23:11:01.236Z,0.00
2023-04-09T23:16:01.221Z,0.00
2023-04-09T23:21:01.114Z,0.00
2023-04-09T23:26:01.037Z,0.00
2023-04-09T23:31:01.016Z,0.00
2023-04-09T23:36:01.183Z,0.00
2023-04-09T23:41:00.843Z,0.00
2023-04-09T23:46:00.769Z,0.00
2023-04-09T23:51:00.699Z,0.00
2023-04-09T23:56:00.697Z,0.00
